Time;durP1;ratioP1;P1;durP2;ratioP2;P2;SDS_P1;SDS_P2;PMS_P1;PMS_P2;Temp;Humidity;BMP_temperature;BMP_pressure;BME280_temperature;BME280_humidity;BME280_pressure;Samples;Min_cycle;Max_cycle;Signal;HPM_P1;HPM_P2
2022/11/19 00:00:54;;;;;;;2.87;1.60;;;;;;;6.80;100.00;95348.22;5068249;28;20212;-68
2022/11/19 00:03:22;;;;;;;3.67;1.87;;;;;;;6.75;100.00;95345.31;5060091;28;20661;-69
2022/11/19 00:05:50;;;;;;;3.83;1.70;;;;;;;6.83;100.00;95340.03;5068089;28;20211;-69
2022/11/19 00:08:19;;;;;;;3.60;1.87;;;;;;;6.80;100.00;95338.56;5059381;28;20228;-69
2022/11/19 00:10:47;;;;;;;5.17;1.73;;;;;;;6.68;100.00;95336.53;5059539;28;20196;-68
2022/11/19 00:13:13;;;;;;;4.17;1.90;;;;;;;6.72;100.00;95335.19;5059562;28;20219;-68
2022/11/19 00:15:40;;;;;;;5.67;1.73;;;;;;;6.61;100.00;95340.03;5060137;28;20208;-68
2022/11/19 00:18:08;;;;;;;3.33;1.80;;;;;;;6.60;100.00;95335.78;5059150;28;20227;-68
2022/11/19 00:20:35;;;;;;;3.83;1.67;;;;;;;6.60;100.00;95331.38;5058416;28;20200;-68
2022/11/19 00:23:02;;;;;;;3.07;1.77;;;;;;;6.52;100.00;95341.06;5059112;28;20775;-69
2022/11/19 00:25:30;;;;;;;3.83;2.30;;;;;;;6.45;100.00;95343.56;5059618;28;20201;-69
2022/11/19 00:27:58;;;;;;;3.07;1.80;;;;;;;6.46;100.00;95336.53;5061274;28;20704;-68
2022/11/19 00:30:24;;;;;;;3.37;2.10;;;;;;;6.44;100.00;95336.72;5064921;28;20200;-68
2022/11/19 00:32:51;;;;;;;2.33;1.97;;;;;;;6.49;100.00;95334.41;5060374;28;20211;-68
2022/11/19 00:35:18;;;;;;;3.33;1.70;;;;;;;6.47;100.00;95338.97;5066073;28;20579;-68
2022/11/19 00:37:44;;;;;;;6.50;2.27;;;;;;;6.40;100.00;95340.69;5061411;28;20690;-69
2022/11/19 00:40:11;;;;;;;3.30;2.07;;;;;;;6.37;100.00;95346.22;5078457;28;20226;-68
2022/11/19 00:43:45;;;;;;;6.73;2.60;;;;;;;6.41;100.00;95336.25;5062742;28;20201;-68
2022/11/19 00:45:26;;;;;;;3.13;2.10;;;;;;;6.38;100.00;95334.78;5059483;28;20200;-69
2022/11/19 00:47:52;;;;;;;4.67;2.00;;;;;;;6.34;100.00;95338.75;5059247;28;20228;-69
2022/11/19 00:50:19;;;;;;;3.37;2.00;;;;;;;6.23;100.00;95339.13;5059179;28;20201;-69
2022/11/19 00:52:45;;;;;;;3.60;2.23;;;;;;;6.30;100.00;95332.22;5057653;28;20215;-69
2022/11/19 00:55:12;;;;;;;4.23;2.50;;;;;;;6.22;100.00;95329.66;5058861;28;20216;-69
2022/11/19 00:57:39;;;;;;;4.30;1.97;;;;;;;6.18;100.00;95323.13;5058930;28;20216;-69
2022/11/19 01:00:07;;;;;;;5.47;2.27;;;;;;;6.22;100.00;95327.06;5059626;28;20204;-68
2022/11/19 01:02:35;;;;;;;5.10;2.30;;;;;;;6.17;100.00;95339.84;5058552;28;20209;-69
2022/11/19 01:05:01;;;;;;;4.40;2.40;;;;;;;6.16;100.00;95342.59;5059108;28;20212;-69
2022/11/19 01:07:28;;;;;;;4.17;2.33;;;;;;;6.15;100.00;95347.03;5058818;28;20255;-69
2022/11/19 01:09:54;;;;;;;6.90;2.57;;;;;;;6.11;100.00;95355.41;5059084;28;20215;-69
2022/11/19 01:12:21;;;;;;;4.57;2.37;;;;;;;5.97;100.00;95347.44;5063356;28;20563;-68
2022/11/19 01:14:49;;;;;;;5.53;2.57;;;;;;;6.05;100.00;95353.47;5061812;28;20205;-69
2022/11/19 01:17:15;;;;;;;6.37;2.80;;;;;;;6.02;100.00;95358.19;5058632;28;20208;-69
2022/11/19 01:19:42;;;;;;;7.00;2.60;;;;;;;5.92;100.00;95365.44;5054756;28;20211;-69
2022/11/19 01:22:08;;;;;;;6.70;2.67;;;;;;;5.89;100.00;95363.16;5059017;28;20208;-68
2022/11/19 01:24:35;;;;;;;3.70;2.47;;;;;;;5.90;100.00;95368.22;5058592;28;20205;-68
2022/11/19 01:27:01;;;;;;;3.57;2.57;;;;;;;5.90;100.00;95357.75;5058220;28;20570;-69
2022/11/19 01:29:27;;;;;;;5.70;2.70;;;;;;;5.95;100.00;95365.91;5058173;28;20235;-68
2022/11/19 01:31:55;;;;;;;5.80;2.27;;;;;;;5.98;100.00;95370.00;5058680;28;20200;-69
2022/11/19 01:34:22;;;;;;;9.03;3.10;;;;;;;5.91;100.00;95361.22;5057902;28;20207;-69
2022/11/19 01:36:48;;;;;;;7.67;2.67;;;;;;;5.96;100.00;95356.25;5058073;28;20217;-68
2022/11/19 01:39:15;;;;;;;5.17;2.80;;;;;;;5.92;100.00;95360.19;5058743;28;20228;-69
2022/11/19 01:41:41;;;;;;;8.20;2.73;;;;;;;5.88;100.00;95364.97;5058175;28;20204;-69
2022/11/19 01:44:46;;;;;;;8.33;2.73;;;;;;;5.99;100.00;95369.03;5057451;28;20544;-68
2022/11/19 01:47:14;;;;;;;6.73;2.90;;;;;;;6.03;100.00;95373.72;5057824;28;20209;-68
2022/11/19 01:49:41;;;;;;;6.83;2.90;;;;;;;5.84;100.00;95382.00;5057925;28;20217;-68
2022/11/19 01:52:08;;;;;;;4.30;2.60;;;;;;;5.97;100.00;95378.81;5058313;28;20200;-68
2022/11/19 01:54:39;;;;;;;7.10;3.30;;;;;;;6.08;100.00;95372.25;5057599;28;20672;-69
2022/11/19 01:57:08;;;;;;;5.00;2.47;;;;;;;6.03;100.00;95378.94;5057788;28;20204;-68
2022/11/19 01:59:35;;;;;;;4.10;2.47;;;;;;;5.97;100.00;95370.97;5058097;28;20196;-69
2022/11/19 02:02:02;;;;;;;7.10;3.23;;;;;;;6.01;100.00;95372.25;5057837;28;20197;-69
2022/11/19 02:04:31;;;;;;;5.63;2.77;;;;;;;6.01;100.00;95380.09;5057091;28;20207;-69
2022/11/19 02:06:57;;;;;;;4.13;2.37;;;;;;;5.84;100.00;95381.16;5057926;28;20216;-69
2022/11/19 02:09:26;;;;;;;8.03;2.90;;;;;;;5.91;100.00;95377.69;5057676;28;20692;-69
2022/11/19 02:12:07;;;;;;;8.60;2.77;;;;;;;6.08;100.00;95379.25;5057582;28;20215;-69
2022/11/19 02:14:48;;;;;;;5.90;2.57;;;;;;;6.13;100.00;95385.59;5057438;28;20200;-69
2022/11/19 02:17:26;;;;;;;4.67;2.70;;;;;;;6.13;100.00;95372.50;5057595;28;20200;-68
2022/11/19 02:20:34;;;;;;;6.90;3.37;;;;;;;6.18;100.00;95377.25;5054353;28;20200;-69
2022/11/19 02:23:38;;;;;;;6.53;3.33;;;;;;;6.24;100.00;95377.38;5057335;28;20909;-69
2022/11/19 02:26:25;;;;;;;9.50;2.90;;;;;;;6.25;100.00;95372.94;5057531;28;20211;-69
2022/11/19 02:28:57;;;;;;;12.43;2.47;;;;;;;6.19;100.00;95379.69;5056958;28;20232;-69
2022/11/19 02:31:31;;;;;;;7.07;2.90;;;;;;;6.33;100.00;95373.72;5065535;28;20208;-69
2022/11/19 02:34:01;;;;;;;6.47;3.00;;;;;;;6.31;100.00;95377.50;5057111;28;20215;-69
2022/11/19 02:36:35;;;;;;;6.13;3.23;;;;;;;6.34;100.00;95383.22;5064995;28;20208;-69
2022/11/19 02:39:06;;;;;;;4.30;2.50;;;;;;;6.35;100.00;95379.63;5057337;28;20215;-69
2022/11/19 02:41:37;;;;;;;5.43;2.70;;;;;;;6.35;100.00;95389.25;5065291;28;20846;-70
2022/11/19 02:47:05;;;;;;;6.83;2.53;;;;;;;6.36;100.00;95389.06;5057412;28;21534;-70
2022/11/19 02:49:35;;;;;;;5.37;2.33;;;;;;;6.37;100.00;95393.31;5059296;28;20221;-70
2022/11/19 02:52:04;;;;;;;10.10;2.80;;;;;;;6.40;100.00;95395.63;5057236;28;20848;-70
2022/11/19 02:54:30;;;;;;;5.60;2.60;;;;;;;6.25;100.00;95397.31;5056156;28;20681;-70
2022/11/19 02:56:58;;;;;;;4.03;2.20;;;;;;;6.42;100.00;95392.81;5056696;28;20215;-70
2022/11/19 03:05:03;;;;;;;4.67;1.90;;;;;;;6.30;100.00;95400.25;5053373;28;20330;-69
2022/11/19 03:07:30;;;;;;;4.40;2.23;;;;;;;6.31;100.00;95399.28;5056915;28;20297;-70
2022/11/19 03:10:03;;;;;;;8.63;2.20;;;;;;;6.38;100.00;95409.88;5064523;28;20703;-69
2022/11/19 03:12:42;;;;;;;8.50;2.60;;;;;;;6.43;100.00;95408.34;5056694;28;20200;-69
2022/11/19 03:18:14;;;;;;;6.10;1.97;;;;;;;6.60;100.00;95407.25;5060586;28;20297;-70
2022/11/19 03:20:42;;;;;;;5.57;1.83;;;;;;;6.35;100.00;95410.19;5061115;28;20196;-70
2022/11/19 03:23:13;;;;;;;6.87;2.07;;;;;;;6.38;100.00;95410.66;5059946;28;20673;-70
2022/11/19 03:25:44;;;;;;;5.70;2.13;;;;;;;6.43;100.00;95416.19;5061188;28;20196;-70
2022/11/19 03:28:15;;;;;;;4.10;1.70;;;;;;;6.50;100.00;95411.91;5060903;28;20228;-70
2022/11/19 03:30:44;;;;;;;3.43;2.10;;;;;;;6.58;100.00;95411.88;5060251;28;20197;-70
2022/11/19 03:33:17;;;;;;;5.00;2.07;;;;;;;6.55;100.00;95414.00;5059946;28;21029;-70
2022/11/19 03:35:47;;;;;;;3.10;1.80;;;;;;;6.60;100.00;95409.88;5061442;28;20283;-70
2022/11/19 03:38:19;;;;;;;2.93;2.03;;;;;;;6.58;100.00;95408.41;5060423;28;20220;-70
2022/11/19 03:40:48;;;;;;;6.63;2.00;;;;;;;6.57;100.00;95409.41;5060492;28;20563;-70
2022/11/19 03:43:20;;;;;;;4.53;1.97;;;;;;;6.65;100.00;95407.56;5060417;28;20205;-70
2022/11/19 03:45:50;;;;;;;2.73;1.70;;;;;;;6.59;100.00;95404.81;5061048;28;20201;-70
2022/11/19 03:48:22;;;;;;;3.50;1.90;;;;;;;6.61;100.00;95415.94;5068050;28;20232;-69
2022/11/19 03:50:52;;;;;;;3.43;2.07;;;;;;;6.61;100.00;95414.13;5060652;28;20330;-69
2022/11/19 03:53:20;;;;;;;6.60;1.90;;;;;;;6.68;100.00;95421.13;5066999;28;20192;-69
2022/11/19 03:55:52;;;;;;;6.23;2.10;;;;;;;6.65;100.00;95422.47;5059878;28;20207;-69
2022/11/19 03:58:18;;;;;;;4.77;2.10;;;;;;;6.66;100.00;95424.91;5068389;28;20220;-69
2022/11/19 04:00:45;;;;;;;6.03;1.97;;;;;;;6.54;100.00;95431.50;5060810;28;20278;-69
2022/11/19 04:03:11;;;;;;;3.83;2.17;;;;;;;6.56;100.00;95431.34;5066755;28;20196;-69
2022/11/19 04:05:39;;;;;;;5.00;1.93;;;;;;;6.56;100.00;95426.13;5060618;28;20205;-70
2022/11/19 04:08:06;;;;;;;2.93;1.70;;;;;;;6.56;100.00;95428.72;5059758;28;20217;-69
2022/11/19 04:10:32;;;;;;;5.83;1.93;;;;;;;6.57;100.00;95430.34;5060158;28;20216;-69
2022/11/19 04:12:59;;;;;;;3.47;2.13;;;;;;;6.63;100.00;95433.09;5058785;28;20676;-69
2022/11/19 04:15:25;;;;;;;5.03;2.17;;;;;;;6.55;100.00;95433.13;5060273;28;20231;-69
2022/11/19 04:17:52;;;;;;;4.40;2.17;;;;;;;6.67;100.00;95429.16;5059391;28;20224;-69
2022/11/19 04:20:18;;;;;;;6.00;2.23;;;;;;;6.68;100.00;95431.59;5057511;28;20205;-69
2022/11/19 04:22:46;;;;;;;5.10;2.40;;;;;;;6.69;100.00;95424.53;5058794;28;20563;-69
2022/11/19 04:25:13;;;;;;;3.70;2.10;;;;;;;6.65;100.00;95425.09;5060017;28;20279;-69
2022/11/19 04:27:39;;;;;;;8.53;2.57;;;;;;;6.68;100.00;95425.53;5058386;28;21031;-69
2022/11/19 04:30:07;;;;;;;5.80;2.37;;;;;;;6.61;100.00;95424.59;5059429;28;20224;-69
2022/11/19 04:32:33;;;;;;;4.97;2.00;;;;;;;6.44;100.00;95424.84;5066786;28;20203;-69
2022/11/19 04:35:00;;;;;;;3.43;2.00;;;;;;;6.48;100.00;95426.13;5059523;28;20586;-69
2022/11/19 04:37:26;;;;;;;4.60;2.53;;;;;;;6.56;100.00;95423.50;5067920;28;20220;-69
2022/11/19 04:39:54;;;;;;;3.77;2.20;;;;;;;6.58;100.00;95416.28;5058987;28;20200;-69
2022/11/19 04:42:21;;;;;;;4.70;2.30;;;;;;;6.53;100.00;95418.59;5070860;28;20211;-69
2022/11/19 04:44:47;;;;;;;3.53;2.30;;;;;;;6.55;100.00;95416.63;5059672;28;20699;-70
2022/11/19 04:47:14;;;;;;;4.73;2.27;;;;;;;6.53;100.00;95422.03;5059832;28;20208;-70
2022/11/19 04:49:40;;;;;;;4.23;2.57;;;;;;;6.57;100.00;95418.09;5062186;28;20217;-69
2022/11/19 04:52:07;;;;;;;4.43;2.10;;;;;;;6.39;100.00;95417.53;5058942;28;20201;-69
2022/11/19 04:54:33;;;;;;;7.00;2.40;;;;;;;6.53;100.00;95429.06;5058910;28;20207;-69
2022/11/19 04:57:01;;;;;;;3.93;2.57;;;;;;;6.50;100.00;95430.22;5059366;28;20204;-69
2022/11/19 04:59:28;;;;;;;2.73;1.97;;;;;;;6.52;100.00;95430.88;5059273;28;20219;-69
2022/11/19 05:01:54;;;;;;;4.20;2.33;;;;;;;6.58;100.00;95426.75;5059125;28;20299;-69
2022/11/19 05:04:21;;;;;;;3.37;2.17;;;;;;;6.40;100.00;95434.03;5058162;28;20196;-69
2022/11/19 05:06:47;;;;;;;4.33;2.17;;;;;;;6.46;100.00;95428.94;5058631;28;20808;-69
2022/11/19 05:09:14;;;;;;;4.77;2.50;;;;;;;6.54;100.00;95434.13;5059115;28;20221;-69
2022/11/19 05:11:40;;;;;;;4.67;2.70;;;;;;;6.65;100.00;95435.56;5059137;28;20427;-69
2022/11/19 05:14:08;;;;;;;5.73;2.40;;;;;;;6.58;100.00;95430.19;5057982;28;20200;-69
2022/11/19 05:16:35;;;;;;;7.57;2.87;;;;;;;6.56;100.00;95426.13;5059066;28;20197;-69
2022/11/19 05:19:01;;;;;;;4.20;2.57;;;;;;;6.57;100.00;95431.16;5056802;28;20240;-69
2022/11/19 05:21:28;;;;;;;7.03;3.47;;;;;;;6.43;100.00;95424.06;5058346;28;20208;-69
2022/11/19 05:23:54;;;;;;;4.70;2.60;;;;;;;6.52;100.00;95430.03;5057970;28;20211;-69
2022/11/19 05:26:21;;;;;;;7.03;3.23;;;;;;;6.47;100.00;95422.72;5058962;28;20669;-69
2022/11/19 05:28:47;;;;;;;5.73;2.90;;;;;;;6.39;100.00;95417.53;5058045;28;20232;-69
2022/11/19 05:31:15;;;;;;;5.20;2.43;;;;;;;6.47;100.00;95419.28;5058608;28;20207;-69
2022/11/19 05:33:42;;;;;;;4.47;2.40;;;;;;;6.37;100.00;95427.34;5057825;28;20197;-69
2022/11/19 05:36:09;;;;;;;5.53;2.93;;;;;;;6.42;100.00;95417.19;5065572;28;20955;-69
2022/11/19 05:38:36;;;;;;;6.53;3.20;;;;;;;6.45;100.00;95421.25;5057828;28;20326;-69
2022/11/19 05:41:02;;;;;;;6.13;2.47;;;;;;;6.34;100.00;95425.06;5058344;28;20645;-69
2022/11/19 05:43:29;;;;;;;10.93;3.87;;;;;;;6.33;100.00;95422.63;5057306;28;21153;-69
2022/11/19 05:45:59;;;;;;;6.83;3.70;;;;;;;6.43;100.00;95433.69;5058325;28;20219;-69
2022/11/19 05:48:27;;;;;;;8.03;3.10;;;;;;;6.42;100.00;95426.84;5058697;28;20224;-69
2022/11/19 05:50:53;;;;;;;5.50;3.07;;;;;;;6.22;100.00;95436.91;5066670;28;20200;-69
2022/11/19 05:53:20;;;;;;;7.50;2.67;;;;;;;6.35;100.00;95426.72;5057383;28;20207;-69
2022/11/19 05:55:47;;;;;;;5.03;2.70;;;;;;;6.20;100.00;95438.88;5065826;28;20197;-70
2022/11/19 05:58:13;;;;;;;4.80;2.70;;;;;;;6.23;100.00;95438.53;5057973;28;20209;-70
2022/11/19 06:00:40;;;;;;;5.47;2.63;;;;;;;6.24;100.00;95439.34;5066606;28;20262;-69
2022/11/19 06:03:06;;;;;;;4.70;2.70;;;;;;;6.33;100.00;95426.06;5057196;28;20215;-69
2022/11/19 06:05:34;;;;;;;5.23;2.67;;;;;;;6.30;100.00;95434.25;5058051;28;20232;-69
2022/11/19 06:08:00;;;;;;;4.00;2.43;;;;;;;6.09;100.00;95436.63;5058167;28;20231;-69
2022/11/19 06:10:27;;;;;;;5.03;2.80;;;;;;;6.14;100.00;95431.69;5057652;28;20275;-69
2022/11/19 06:12:53;;;;;;;6.00;3.00;;;;;;;6.17;100.00;95433.16;5056805;28;20204;-69
2022/11/19 06:15:20;;;;;;;8.60;3.20;;;;;;;6.09;100.00;95441.84;5057643;28;20201;-69
2022/11/19 06:17:47;;;;;;;7.00;2.90;;;;;;;6.17;100.00;95438.38;5057716;28;20504;-69
2022/11/19 06:20:13;;;;;;;8.77;3.50;;;;;;;6.18;100.00;95446.06;5056034;28;20201;-69
2022/11/19 06:22:41;;;;;;;6.60;3.50;;;;;;;6.30;100.00;95442.09;5056812;28;20208;-69
2022/11/19 06:25:08;;;;;;;8.40;3.20;;;;;;;6.11;100.00;95446.94;5057032;28;20209;-69
2022/11/19 06:27:35;;;;;;;6.03;3.10;;;;;;;6.25;100.00;95448.81;5057033;28;20221;-69
2022/11/19 06:30:01;;;;;;;8.33;3.50;;;;;;;6.29;100.00;95450.13;5057386;28;20224;-69
2022/11/19 06:32:28;;;;;;;11.10;3.60;;;;;;;6.29;100.00;95442.28;5057076;28;20196;-69
2022/11/19 06:34:54;;;;;;;5.30;2.40;;;;;;;6.25;100.00;95446.19;5058450;28;20724;-69
2022/11/19 06:37:21;;;;;;;7.40;3.23;;;;;;;6.24;100.00;95449.81;5063360;28;20204;-69
2022/11/19 06:39:49;;;;;;;8.10;4.13;;;;;;;6.29;100.00;95456.16;5057585;28;20684;-69
2022/11/19 06:44:59;;;;;;;8.83;4.47;;;;;;;6.34;100.00;95459.09;5057163;28;20220;-69
2022/11/19 06:47:26;;;;;;;6.97;3.97;;;;;;;6.22;100.00;95457.84;5056890;28;20224;-69
2022/11/19 06:49:52;;;;;;;9.63;4.43;;;;;;;6.36;100.00;95458.91;5057042;28;20234;-69
2022/11/19 06:52:19;;;;;;;8.40;4.20;;;;;;;6.33;100.00;95460.06;5056128;28;20983;-69
2022/11/19 06:54:45;;;;;;;8.80;3.53;;;;;;;6.29;100.00;95468.44;5057420;28;20202;-69
2022/11/19 06:57:13;;;;;;;7.40;3.63;;;;;;;6.42;100.00;95479.97;5057128;28;20196;-69
2022/11/19 06:59:40;;;;;;;6.17;3.47;;;;;;;6.39;100.00;95472.47;5056810;28;20200;-69
2022/11/19 07:02:07;;;;;;;12.13;4.30;;;;;;;6.53;100.00;95482.22;5056941;28;20669;-69
2022/11/19 07:04:34;;;;;;;9.47;4.30;;;;;;;6.53;100.00;95479.63;5056471;28;20204;-69
2022/11/19 07:07:00;;;;;;;10.33;4.50;;;;;;;6.63;100.00;95482.00;5058969;28;20207;-69
2022/11/19 07:09:27;;;;;;;12.60;4.50;;;;;;;6.71;100.00;95486.22;5066321;28;20660;-69
2022/11/19 07:11:53;;;;;;;7.90;3.90;;;;;;;6.72;100.00;95493.09;5058324;28;20208;-69
2022/11/19 07:14:21;;;;;;;8.00;3.70;;;;;;;6.81;100.00;95478.13;5062672;28;20201;-69
2022/11/19 07:16:48;;;;;;;7.93;3.43;;;;;;;6.76;100.00;95486.53;5057350;28;20278;-69
2022/11/19 07:19:14;;;;;;;7.10;3.33;;;;;;;6.84;100.00;95483.03;5053241;28;20224;-69
2022/11/19 07:21:41;;;;;;;7.70;3.03;;;;;;;6.78;100.00;95489.78;5062652;28;20203;-69
2022/11/19 07:24:09;;;;;;;6.50;3.37;;;;;;;6.86;100.00;95481.06;5056435;28;20200;-69
2022/11/19 07:26:37;;;;;;;12.83;4.20;;;;;;;6.83;100.00;95489.25;5056768;28;20241;-69
2022/11/19 07:29:06;;;;;;;9.20;3.10;;;;;;;6.93;100.00;95495.09;5056345;28;20220;-70
2022/11/19 07:31:34;;;;;;;6.10;2.83;;;;;;;6.94;100.00;95481.03;5056899;28;21035;-69
2022/11/19 07:34:00;;;;;;;5.27;3.10;;;;;;;6.96;100.00;95492.13;5055981;28;20204;-69
2022/11/19 07:36:27;;;;;;;7.73;3.20;;;;;;;6.93;100.00;95495.09;5056627;28;20235;-70
2022/11/19 07:38:53;;;;;;;9.60;3.53;;;;;;;6.92;100.00;95496.09;5060700;28;21138;-70
2022/11/19 07:44:05;;;;;;;8.53;4.10;;;;;;;6.75;100.00;95505.81;5055682;28;20239;-70
2022/11/19 07:46:34;;;;;;;4.70;3.13;;;;;;;6.87;100.00;95511.50;5056391;28;20203;-70
2022/11/19 07:49:01;;;;;;;8.27;3.60;;;;;;;6.94;100.00;95510.63;5056572;28;20216;-70
2022/11/19 07:51:27;;;;;;;7.57;3.80;;;;;;;6.94;100.00;95525.53;5062560;28;20203;-70
2022/11/19 07:53:55;;;;;;;8.43;3.37;;;;;;;6.85;100.00;95514.28;5055861;28;20205;-70
2022/11/19 07:56:22;;;;;;;11.63;4.13;;;;;;;6.81;100.00;95520.84;5056438;28;20216;-70
2022/11/19 07:58:48;;;;;;;8.03;3.40;;;;;;;6.80;100.00;95521.03;5056888;28;20687;-70
2022/11/19 08:01:17;;;;;;;7.97;4.60;;;;;;;6.85;100.00;95513.47;5055981;28;20197;-71
2022/11/19 08:03:46;;;;;;;7.37;3.83;;;;;;;6.73;100.00;95520.91;5058867;28;20552;-70
2022/11/19 08:06:13;;;;;;;10.60;4.00;;;;;;;6.75;100.00;95518.09;5060161;28;20200;-70
2022/11/19 08:08:39;;;;;;;8.27;4.10;;;;;;;6.73;100.00;95522.69;5059936;28;20228;-70
2022/11/19 08:11:08;;;;;;;4.73;2.53;;;;;;;6.82;100.00;95519.03;5060230;28;20220;-70
2022/11/19 08:13:35;;;;;;;9.10;4.20;;;;;;;6.84;100.00;95519.69;5059559;28;20204;-70
2022/11/19 08:16:04;;;;;;;9.17;4.63;;;;;;;6.93;100.00;95518.66;5059906;28;20204;-70
2022/11/19 08:18:30;;;;;;;6.60;3.47;;;;;;;6.89;100.00;95522.63;5056998;28;20220;-70
2022/11/19 08:21:03;;;;;;;8.20;4.00;;;;;;;7.02;100.00;95523.69;5060338;28;20205;-70
2022/11/19 08:23:30;;;;;;;7.00;3.63;;;;;;;7.02;100.00;95528.13;5059734;28;20219;-70
2022/11/19 08:25:56;;;;;;;10.00;4.67;;;;;;;7.14;100.00;95524.09;5059941;28;21282;-70
2022/11/19 08:28:23;;;;;;;8.50;4.30;;;;;;;7.21;100.00;95522.44;5059817;28;20220;-71
2022/11/19 08:30:49;;;;;;;7.47;3.93;;;;;;;7.14;100.00;95519.69;5067429;28;20224;-70
2022/11/19 08:33:16;;;;;;;5.60;2.30;;;;;;;7.27;100.00;95522.56;5058934;28;21158;-71
2022/11/19 08:35:42;;;;;;;9.63;4.70;;;;;;;7.26;100.00;95530.59;5067626;28;20211;-70
2022/11/19 08:38:10;;;;;;;7.67;3.53;;;;;;;7.32;100.00;95526.28;5059723;28;20274;-71
2022/11/19 08:40:37;;;;;;;9.30;3.87;;;;;;;7.20;100.00;95524.22;5066633;28;20656;-70
2022/11/19 08:43:03;;;;;;;9.80;3.93;;;;;;;7.28;100.00;95527.63;5059027;28;20258;-70
2022/11/19 08:45:31;;;;;;;8.40;4.33;;;;;;;7.18;100.00;95528.84;5059630;28;20245;-70
2022/11/19 08:47:59;;;;;;;7.90;4.37;;;;;;;7.22;100.00;95531.91;5059337;28;20225;-70
2022/11/19 08:50:27;;;;;;;7.77;3.83;;;;;;;7.26;100.00;95529.56;5062884;28;20219;-70
2022/11/19 08:52:55;;;;;;;10.87;4.47;;;;;;;7.56;100.00;95539.22;5060266;28;20208;-70
2022/11/19 08:55:23;;;;;;;5.60;2.90;;;;;;;7.36;100.00;95538.03;5060373;28;20200;-70
2022/11/19 08:57:50;;;;;;;9.13;4.37;;;;;;;7.31;100.00;95537.75;5059549;28;20232;-70
2022/11/19 09:00:18;;;;;;;7.50;4.07;;;;;;;7.35;100.00;95539.00;5058478;28;20224;-72
2022/11/19 09:02:45;;;;;;;6.07;3.43;;;;;;;7.42;100.00;95547.00;5057527;28;20278;-70
2022/11/19 09:05:12;;;;;;;10.30;3.93;;;;;;;7.48;100.00;95544.47;5067000;28;20200;-70
2022/11/19 09:07:39;;;;;;;10.10;4.17;;;;;;;7.44;100.00;95547.66;5059323;28;20604;-70
2022/11/19 09:10:06;;;;;;;7.73;4.47;;;;;;;7.49;100.00;95545.31;5057852;28;20510;-70
2022/11/19 09:12:34;;;;;;;6.07;3.33;;;;;;;7.52;100.00;95550.19;5057290;28;20683;-70
2022/11/19 09:15:00;;;;;;;9.70;4.13;;;;;;;7.52;100.00;95550.19;5058072;28;20231;-70
2022/11/19 09:17:27;;;;;;;6.03;2.93;;;;;;;7.57;100.00;95548.69;5058893;28;20216;-70
2022/11/19 09:19:54;;;;;;;10.87;4.93;;;;;;;7.61;100.00;95555.22;5055175;28;20442;-71
2022/11/19 09:22:21;;;;;;;10.50;4.53;;;;;;;7.64;100.00;95560.13;5057933;28;20664;-70
2022/11/19 09:24:47;;;;;;;7.90;3.67;;;;;;;7.63;100.00;95563.72;5058110;28;20211;-70
2022/11/19 09:27:14;;;;;;;8.00;3.93;;;;;;;7.65;100.00;95564.38;5058187;28;20205;-71
2022/11/19 09:29:42;;;;;;;6.60;3.90;;;;;;;7.83;100.00;95569.28;5058767;28;20807;-71
2022/11/19 09:32:08;;;;;;;10.97;4.77;;;;;;;7.82;100.00;95568.50;5058400;28;20204;-71
2022/11/19 09:34:38;;;;;;;6.40;3.07;;;;;;;7.82;100.00;95557.19;5058212;28;20232;-71
2022/11/19 09:37:05;;;;;;;10.63;4.63;;;;;;;7.95;100.00;95572.13;5058158;28;20323;-71
2022/11/19 09:39:31;;;;;;;8.57;4.43;;;;;;;7.96;100.00;95576.38;5058530;28;20222;-70
2022/11/19 09:42:11;;;;;;;7.83;3.73;;;;;;;8.16;100.00;95576.72;5054774;28;20208;-70
2022/11/19 09:45:02;;;;;;;6.23;2.97;;;;;;;8.25;100.00;95576.50;5057700;28;20203;-70
2022/11/19 09:47:45;;;;;;;10.27;4.87;;;;;;;8.32;100.00;95574.78;5057677;28;20220;-70
2022/11/19 09:50:16;;;;;;;9.57;4.00;;;;;;;8.33;100.00;95572.97;5057924;28;20204;-71
2022/11/19 09:52:45;;;;;;;8.57;4.20;;;;;;;8.32;100.00;95579.22;5057843;28;20192;-71
2022/11/19 09:55:18;;;;;;;7.63;3.80;;;;;;;8.37;100.00;95571.63;5058470;28;20243;-69
2022/11/19 09:57:49;;;;;;;6.90;3.60;;;;;;;8.14;100.00;95573.50;5059635;28;20716;-69
2022/11/19 10:00:19;;;;;;;9.00;3.90;;;;;;;8.22;100.00;95574.25;5057356;28;20224;-70
2022/11/19 10:02:46;;;;;;;5.67;3.20;;;;;;;8.18;100.00;95572.13;5056961;28;21085;-70
2022/11/19 10:05:15;;;;;;;6.50;3.40;;;;;;;8.28;100.00;95575.31;5057686;28;20197;-69
2022/11/19 10:07:51;;;;;;;5.33;3.20;;;;;;;8.34;100.00;95575.44;5058012;28;20286;-70
2022/11/19 10:10:32;;;;;;;5.87;2.93;;;;;;;8.48;100.00;95559.69;5058012;28;20235;-70
2022/11/19 10:13:31;;;;;;;5.83;3.47;;;;;;;8.68;100.00;95562.56;5057033;28;20211;-70
2022/11/19 10:16:07;;;;;;;5.63;2.80;;;;;;;8.59;100.00;95568.91;5058404;28;20200;-70
2022/11/19 10:18:42;;;;;;;3.80;2.50;;;;;;;8.71;100.00;95573.53;5057395;28;20224;-70
2022/11/19 10:21:14;;;;;;;6.43;3.00;;;;;;;8.93;100.00;95562.09;5056976;28;20322;-70
2022/11/19 10:23:49;;;;;;;5.53;2.60;;;;;;;8.78;100.00;95566.56;5056951;28;20238;-70
2022/11/19 10:26:18;;;;;;;6.23;2.63;;;;;;;8.60;100.00;95558.25;5057779;28;20200;-70
2022/11/19 10:28:51;;;;;;;2.57;1.70;;;;;;;8.62;100.00;95558.88;5065019;28;20224;-69
2022/11/19 10:31:27;;;;;;;2.93;1.63;;;;;;;8.60;100.00;95560.03;5057018;28;20704;-69
2022/11/19 10:33:58;;;;;;;4.80;2.10;;;;;;;8.48;100.00;95551.81;5056990;28;20712;-69
2022/11/19 10:36:30;;;;;;;4.90;2.20;;;;;;;8.66;100.00;95544.38;5056665;28;20204;-70
2022/11/19 10:39:03;;;;;;;4.30;2.73;;;;;;;8.75;100.00;95547.72;5056846;28;20231;-70
2022/11/19 10:41:34;;;;;;;6.50;2.83;;;;;;;8.56;100.00;95543.81;5054051;28;20204;-69
2022/11/19 10:44:36;;;;;;;11.67;1.93;;;;;;;8.74;100.00;95546.09;5056684;28;20204;-70
2022/11/19 10:47:04;;;;;;;4.33;1.97;;;;;;;8.77;100.00;95549.19;5057287;28;20273;-70
2022/11/19 10:49:37;;;;;;;3.60;2.10;;;;;;;8.60;100.00;95550.38;5057097;28;20204;-69
2022/11/19 10:52:03;;;;;;;5.47;1.80;;;;;;;8.55;100.00;95544.84;5056832;28;21214;-69
2022/11/19 10:54:31;;;;;;;6.00;2.73;;;;;;;8.52;100.00;95550.44;5056459;28;20550;-69
2022/11/19 10:57:00;;;;;;;7.23;2.50;;;;;;;8.46;100.00;95546.91;5057293;28;20580;-69
2022/11/19 10:59:30;;;;;;;5.33;2.30;;;;;;;8.62;100.00;95553.63;5056676;28;20216;-70
2022/11/19 11:02:02;;;;;;;6.23;2.50;;;;;;;8.79;100.00;95549.00;5056948;28;20213;-70
2022/11/19 11:04:30;;;;;;;5.17;1.40;;;;;;;8.70;100.00;95545.63;5056755;28;20608;-70
2022/11/19 11:06:58;;;;;;;5.97;2.30;;;;;;;8.72;100.00;95545.47;5061953;28;20208;-70
2022/11/19 11:09:33;;;;;;;7.97;2.97;;;;;;;8.70;100.00;95548.25;5057005;28;21195;-69
2022/11/19 11:14:59;;;;;;;4.53;2.57;;;;;;;8.84;100.00;95544.81;5056573;28;20199;-69
2022/11/19 11:17:28;;;;;;;3.30;1.87;;;;;;;8.94;100.00;95537.47;5056479;28;20226;-70
2022/11/19 11:19:59;;;;;;;2.70;1.57;;;;;;;8.95;100.00;95541.72;5065851;28;20204;-73
2022/11/19 11:22:26;;;;;;;3.57;1.87;;;;;;;8.80;100.00;95542.75;5061664;28;20207;-73
2022/11/19 11:24:53;;;;;;;3.70;1.43;;;;;;;8.86;100.00;95544.63;5059487;28;20196;-72
2022/11/19 11:27:22;;;;;;;2.37;1.43;;;;;;;8.93;100.00;95535.81;5056965;28;20208;-72
2022/11/19 11:29:49;;;;;;;4.00;2.03;;;;;;;9.06;100.00;95546.50;5056667;28;20291;-72
2022/11/19 11:32:29;;;;;;;6.90;1.73;;;;;;;9.18;100.00;95534.53;5056307;28;20224;-72
2022/11/19 11:34:57;;;;;;;4.37;1.73;;;;;;;8.97;100.00;95542.34;5061352;28;20208;-72
2022/11/19 11:37:26;;;;;;;3.20;1.30;;;;;;;9.02;100.00;95539.19;5062584;28;20212;-72
2022/11/19 11:39:55;;;;;;;4.13;1.70;;;;;;;9.08;100.00;95538.44;5058145;28;20234;-72
2022/11/19 11:42:25;;;;;;;7.33;1.77;;;;;;;9.21;100.00;95539.41;5060147;28;20201;-72
2022/11/19 11:44:54;;;;;;;3.57;1.83;;;;;;;9.13;100.00;95532.44;5061766;28;20202;-72
2022/11/19 11:47:24;;;;;;;1.13;0.87;;;;;;;9.19;100.00;95536.16;5066201;28;20208;-72
2022/11/19 11:50:03;;;;;;;7.10;1.70;;;;;;;9.22;100.00;95531.31;5061520;28;20207;-72
2022/11/19 11:52:35;;;;;;;11.73;4.40;;;;;;;9.34;100.00;95529.03;5064983;28;20213;-72
2022/11/19 11:55:04;;;;;;;7.43;3.30;;;;;;;9.23;100.00;95538.22;5062603;28;20211;-72
2022/11/19 11:57:33;;;;;;;5.97;3.07;;;;;;;9.13;100.00;95529.00;5069348;28;20224;-72
2022/11/19 12:00:01;;;;;;;4.43;2.43;;;;;;;8.94;100.00;95536.66;5061111;28;21133;-72